createdAt,value
2018-03-18T00:01:48.136Z,84.45
2018-03-18T00:04:15.519Z,84.63
2018-03-18T00:06:42.951Z,84.76
2018-03-18T00:09:10.338Z,84.62
2018-03-18T00:11:37.699Z,84.16
2018-03-18T00:14:06.035Z,84.55
2018-03-18T00:16:33.962Z,84.34
2018-03-18T00:19:02.195Z,84.28
2018-03-18T00:21:30.303Z,84.56
2018-03-18T00:23:57.607Z,84.58
2018-03-18T00:26:24.999Z,84.54
2018-03-18T00:28:52.386Z,84.40
2018-03-18T00:31:19.732Z,84.52
2018-03-18T00:33:47.072Z,83.94
2018-03-18T00:36:14.401Z,84.15
2018-03-18T00:38:41.750Z,84.18
2018-03-18T00:41:09.078Z,84.31
2018-03-18T00:43:37.253Z,84.15
2018-03-18T00:46:04.592Z,84.28
2018-03-18T00:48:31.523Z,84.40
2018-03-18T00:50:58.880Z,84.42
2018-03-18T00:53:29.048Z,84.45
2018-03-18T00:55:56.394Z,84.71
2018-03-18T00:58:23.741Z,84.90
2018-03-18T01:00:52.074Z,84.26
2018-03-18T01:03:19.460Z,84.43
2018-03-18T01:05:46.839Z,84.20
2018-03-18T01:08:14.198Z,84.35
2018-03-18T01:10:41.529Z,84.35
2018-03-18T01:13:08.878Z,84.34
2018-03-18T01:15:36.197Z,84.20
2018-03-18T01:18:03.545Z,84.45
2018-03-18T01:20:30.877Z,84.51
2018-03-18T01:22:59.054Z,84.43
2018-03-18T01:25:26.438Z,84.32
2018-03-18T01:27:54.654Z,84.09
2018-03-18T01:30:21.992Z,84.17
2018-03-18T01:32:50.422Z,84.13
2018-03-18T01:35:17.787Z,84.32
2018-03-18T01:37:44.386Z,84.07
2018-03-18T01:40:10.957Z,84.44
2018-03-18T01:42:37.713Z,84.46
2018-03-18T01:45:04.360Z,84.28
2018-03-18T01:47:31.314Z,84.44
2018-03-18T01:49:57.954Z,84.33
2018-03-18T01:52:25.583Z,84.58
2018-03-18T01:54:52.551Z,84.71
2018-03-18T01:57:20.567Z,84.64
2018-03-18T01:59:47.159Z,84.41
2018-03-18T02:02:13.764Z,84.67
2018-03-18T02:04:41.210Z,84.71
2018-03-18T02:07:08.538Z,84.26
2018-03-18T02:09:35.137Z,84.73
2018-03-18T02:12:01.732Z,84.39
2018-03-18T02:14:28.435Z,84.70
2018-03-18T02:16:56.135Z,84.25
2018-03-18T02:19:24.526Z,84.18
2018-03-18T02:21:51.908Z,84.28
2018-03-18T02:24:19.263Z,84.53
2018-03-18T02:26:47.236Z,84.57
2018-03-18T02:29:14.640Z,84.68
2018-03-18T02:31:42.755Z,84.77
2018-03-18T02:34:11.192Z,84.67
2018-03-18T02:36:39.260Z,84.75
2018-03-18T02:39:06.989Z,85.05
2018-03-18T02:41:34.338Z,84.72
2018-03-18T02:44:02.187Z,84.70
2018-03-18T02:46:29.583Z,84.37
2018-03-18T02:48:57.843Z,84.67
2018-03-18T02:51:25.237Z,84.62
2018-03-18T02:53:52.601Z,84.38
2018-03-18T02:56:20.682Z,84.71
2018-03-18T02:58:48.024Z,84.50
2018-03-18T03:01:16.953Z,84.65
2018-03-18T03:03:45.302Z,85.13
2018-03-18T03:06:12.675Z,85.08
2018-03-18T03:08:40.015Z,85.31
2018-03-18T03:11:08.974Z,85.41
2018-03-18T03:13:36.312Z,85.64
2018-03-18T03:16:04.478Z,85.64
2018-03-18T03:18:31.846Z,85.39
2018-03-18T03:20:59.953Z,85.49
2018-03-18T03:23:27.303Z,85.48
2018-03-18T03:25:54.647Z,85.61
2018-03-18T03:28:22.389Z,85.87
2018-03-18T03:30:49.710Z,85.92
2018-03-18T03:33:17.064Z,86.31
2018-03-18T03:35:44.442Z,86.57
2018-03-18T03:38:11.785Z,86.62
2018-03-18T03:40:39.140Z,86.71
2018-03-18T03:43:06.557Z,86.76
2018-03-18T03:45:34.295Z,86.78
2018-03-18T03:48:01.696Z,86.76
2018-03-18T03:50:29.043Z,86.89
2018-03-18T03:52:56.478Z,87.00
2018-03-18T03:55:23.809Z,87.26
2018-03-18T03:57:51.127Z,87.31
2018-03-18T04:00:18.445Z,87.13
2018-03-18T04:02:46.857Z,86.85
2018-03-18T04:05:14.249Z,86.84
2018-03-18T04:07:42.363Z,86.97
2018-03-18T04:10:09.850Z,87.17
2018-03-18T04:12:37.154Z,87.34
2018-03-18T04:15:04.508Z,87.06
2018-03-18T04:17:31.881Z,87.08
2018-03-18T04:19:59.202Z,87.24
2018-03-18T04:22:28.247Z,87.16
2018-03-18T04:24:55.582Z,87.09
2018-03-18T04:27:23.676Z,87.07
2018-03-18T04:29:51.600Z,86.73
2018-03-18T04:32:18.934Z,86.54
2018-03-18T04:34:45.909Z,86.60
2018-03-18T04:37:13.258Z,86.64
2018-03-18T04:39:40.674Z,86.89
2018-03-18T04:42:08.034Z,86.97
2018-03-18T04:44:35.806Z,86.97
2018-03-18T04:47:03.674Z,86.96
2018-03-18T04:49:32.291Z,86.76
2018-03-18T04:52:00.087Z,86.95
2018-03-18T04:54:27.423Z,87.00
2018-03-18T04:56:54.808Z,87.08
2018-03-18T04:59:22.150Z,87.16
2018-03-18T05:01:50.109Z,87.29
2018-03-18T05:04:17.553Z,86.96
2018-03-18T05:06:45.296Z,86.97
2018-03-18T05:09:12.939Z,86.90
2018-03-18T05:11:40.270Z,86.78
2018-03-18T05:14:07.662Z,87.06
2018-03-18T05:16:35.110Z,86.75
2018-03-18T05:19:03.223Z,86.51
2018-03-18T05:21:30.963Z,86.60
2018-03-18T05:23:59.296Z,86.43
2018-03-18T05:26:25.974Z,86.15
2018-03-18T05:28:52.563Z,86.42
2018-03-18T05:31:19.175Z,86.37
2018-03-18T05:33:46.532Z,86.18
2018-03-18T05:36:15.481Z,86.27
2018-03-18T05:38:42.125Z,86.31
2018-03-18T05:41:08.918Z,86.31
2018-03-18T05:43:35.499Z,85.93
2018-03-18T05:46:02.095Z,86.21
2018-03-18T05:48:28.782Z,86.41
2018-03-18T05:50:56.116Z,86.36
2018-03-18T05:53:22.703Z,86.18
2018-03-18T05:55:50.107Z,86.43
2018-03-18T05:58:17.658Z,86.23
2018-03-18T06:00:45.435Z,86.04
2018-03-18T06:03:12.032Z,85.91
2018-03-18T06:05:39.349Z,86.10
2018-03-18T06:08:05.939Z,85.91
2018-03-18T06:10:32.602Z,86.02
2018-03-18T06:12:59.210Z,85.94
2018-03-18T06:15:25.799Z,85.68
2018-03-18T06:17:53.118Z,85.67
2018-03-18T06:20:20.057Z,85.73
2018-03-18T06:22:47.649Z,85.73
2018-03-18T06:25:14.987Z,85.30
2018-03-18T06:27:41.605Z,85.42
2018-03-18T06:30:08.203Z,85.46
2018-03-18T06:32:36.198Z,85.00
2018-03-18T06:35:02.857Z,85.21
2018-03-18T06:37:30.472Z,84.97
2018-03-18T06:39:57.810Z,84.85
2018-03-18T06:42:24.380Z,84.74
2018-03-18T06:44:51.011Z,84.92
2018-03-18T06:47:18.296Z,85.00
2018-03-18T06:49:45.604Z,84.94
2018-03-18T06:52:12.562Z,85.18
2018-03-18T06:54:39.251Z,85.11
2018-03-18T06:57:06.774Z,85.23
2018-03-18T06:59:33.364Z,85.44
2018-03-18T07:02:00.919Z,85.20
2018-03-18T07:04:28.376Z,85.49
2018-03-18T07:06:55.834Z,85.31
2018-03-18T07:09:23.178Z,85.25
2018-03-18T07:11:49.751Z,85.33
2018-03-18T07:14:16.373Z,85.56
2018-03-18T07:16:43.007Z,85.52
2018-03-18T07:19:09.625Z,85.23
2018-03-18T07:21:36.195Z,85.40
2018-03-18T07:24:02.834Z,85.33
2018-03-18T07:26:29.475Z,85.20
2018-03-18T07:28:56.067Z,84.75
2018-03-18T07:31:22.661Z,84.90
2018-03-18T07:33:49.251Z,84.68
2018-03-18T07:36:15.863Z,84.69
2018-03-18T07:38:42.502Z,84.45
2018-03-18T07:41:09.119Z,84.48
2018-03-18T07:43:35.701Z,84.31
2018-03-18T07:46:03.111Z,84.66
2018-03-18T07:48:30.696Z,84.37
2018-03-18T07:50:57.295Z,83.82
2018-03-18T07:53:24.698Z,83.58
2018-03-18T07:55:51.355Z,83.99
2018-03-18T07:58:18.084Z,83.81
2018-03-18T08:00:44.749Z,83.21
2018-03-18T08:03:11.404Z,83.31
2018-03-18T08:05:38.002Z,83.34
2018-03-18T08:08:04.586Z,83.52
2018-03-18T08:10:31.863Z,83.32
2018-03-18T08:12:58.485Z,83.12
2018-03-18T08:15:25.087Z,82.69
2018-03-18T08:17:52.378Z,82.88
2018-03-18T08:20:19.293Z,82.81
2018-03-18T08:22:45.969Z,82.93
2018-03-18T08:25:13.608Z,82.62
2018-03-18T08:27:40.354Z,82.42
2018-03-18T08:30:07.109Z,82.64
2018-03-18T08:32:33.847Z,82.45
2018-03-18T08:35:00.432Z,82.69
2018-03-18T08:37:27.004Z,82.87
2018-03-18T08:39:53.907Z,82.92
2018-03-18T08:42:27.451Z,82.70
2018-03-18T08:44:54.082Z,82.19
2018-03-18T08:47:20.683Z,82.10
2018-03-18T08:49:48.261Z,81.99
2018-03-18T08:52:14.925Z,82.72
2018-03-18T08:54:43.055Z,82.30
2018-03-18T08:57:10.415Z,82.50
2018-03-18T08:59:37.779Z,82.33
2018-03-18T09:02:04.453Z,81.83
2018-03-18T09:04:31.673Z,81.90
2018-03-18T09:06:58.348Z,82.08
2018-03-18T09:09:25.009Z,81.88
2018-03-18T09:11:51.633Z,81.63
2018-03-18T09:14:19.037Z,81.23
2018-03-18T09:16:45.686Z,81.34
2018-03-18T09:19:12.584Z,81.67
2018-03-18T09:21:39.278Z,82.05
2018-03-18T09:24:05.940Z,82.26
2018-03-18T09:26:32.591Z,81.90
2018-03-18T09:28:59.611Z,81.47
2018-03-18T09:31:26.203Z,81.62
2018-03-18T09:33:53.319Z,81.16
2018-03-18T09:36:19.935Z,80.84
2018-03-18T09:38:46.623Z,80.84
2018-03-18T09:41:13.270Z,80.40
2018-03-18T09:43:40.620Z,80.13
2018-03-18T09:46:07.909Z,79.53
2018-03-18T09:48:35.252Z,79.08
2018-03-18T09:51:01.818Z,78.87
2018-03-18T09:53:29.127Z,78.63
2018-03-18T09:55:56.459Z,77.74
2018-03-18T09:58:24.837Z,77.61
2018-03-18T10:00:51.538Z,77.15
2018-03-18T10:03:18.109Z,76.83
2018-03-18T10:05:44.728Z,76.63
2018-03-18T10:08:11.373Z,77.33
2018-03-18T10:10:38.034Z,77.91
2018-03-18T10:13:05.379Z,77.34
2018-03-18T10:15:33.597Z,77.57
2018-03-18T10:18:00.229Z,77.41
2018-03-18T10:20:26.956Z,77.31
2018-03-18T10:22:53.525Z,76.92
2018-03-18T10:25:21.981Z,77.21
2018-03-18T10:27:48.606Z,75.99
2018-03-18T10:30:15.941Z,75.46
2018-03-18T10:32:42.533Z,75.25
2018-03-18T10:35:09.718Z,75.03
2018-03-18T10:37:36.857Z,74.45
2018-03-18T10:40:03.556Z,73.33
2018-03-18T10:42:30.214Z,72.44
2018-03-18T10:44:57.671Z,72.16
2018-03-18T10:47:26.206Z,72.52
2018-03-18T10:49:52.783Z,70.57
2018-03-18T10:52:19.400Z,72.19
2018-03-18T10:54:46.032Z,71.70
2018-03-18T10:57:12.646Z,73.35
2018-03-18T10:59:40.008Z,73.00
2018-03-18T11:02:13.329Z,72.71
2018-03-18T11:04:39.942Z,72.02
2018-03-18T11:07:07.299Z,71.16
2018-03-18T11:09:34.642Z,70.78
2018-03-18T11:12:01.973Z,71.56
2018-03-18T11:14:29.339Z,71.50
2018-03-18T11:16:55.942Z,72.35
2018-03-18T11:19:22.579Z,72.50
2018-03-18T11:21:50.038Z,73.07
2018-03-18T11:24:16.677Z,72.91
2018-03-18T11:26:43.288Z,72.92
2018-03-18T11:29:10.912Z,73.23
2018-03-18T11:31:38.219Z,73.42
2018-03-18T11:34:04.867Z,73.49
2018-03-18T11:36:31.782Z,72.98
2018-03-18T11:38:58.403Z,73.58
2018-03-18T11:41:25.042Z,73.68
2018-03-18T11:43:52.418Z,73.51
2018-03-18T11:46:19.706Z,73.52
2018-03-18T11:48:46.372Z,74.04
2018-03-18T11:51:13.767Z,74.08
2018-03-18T11:53:40.444Z,73.91
2018-03-18T11:56:07.051Z,72.76
2018-03-18T11:58:33.664Z,73.14
2018-03-18T12:01:00.284Z,74.13
2018-03-18T12:03:27.671Z,73.77
2018-03-18T12:05:54.903Z,74.14
2018-03-18T12:08:40.713Z,74.04
2018-03-18T12:11:08.007Z,74.46
2018-03-18T12:13:34.737Z,74.08
2018-03-18T12:16:02.201Z,73.72
2018-03-18T12:18:29.693Z,73.24
2018-03-18T12:20:56.555Z,73.25
2018-03-18T12:23:23.957Z,72.31
2018-03-18T12:25:50.691Z,73.51
2018-03-18T12:28:17.338Z,73.24
2018-03-18T12:30:43.995Z,72.83
2018-03-18T12:33:11.596Z,72.97
2018-03-18T12:35:38.239Z,73.35
2018-03-18T12:38:04.875Z,73.44
2018-03-18T12:40:33.094Z,72.86
2018-03-18T12:43:18.285Z,72.57
2018-03-18T12:45:46.104Z,73.22
2018-03-18T12:48:14.354Z,73.46
2018-03-18T12:50:40.955Z,73.55
2018-03-18T12:53:07.644Z,73.49
2018-03-18T12:55:35.100Z,73.98
2018-03-18T12:58:01.756Z,74.07
2018-03-18T13:00:28.321Z,73.55
2018-03-18T13:02:54.988Z,74.10
2018-03-18T13:05:21.659Z,73.76
2018-03-18T13:07:48.279Z,74.01
2018-03-18T13:10:14.974Z,73.63
2018-03-18T13:12:42.323Z,74.71
2018-03-18T13:15:09.641Z,73.81
2018-03-18T13:17:36.276Z,73.81
2018-03-18T13:20:02.982Z,74.50
2018-03-18T13:22:30.204Z,73.71
2018-03-18T13:24:57.625Z,73.40
2018-03-18T13:27:25.009Z,74.19
2018-03-18T13:29:51.657Z,73.43
2018-03-18T13:32:19.649Z,73.18
2018-03-18T13:34:47.016Z,74.01
2018-03-18T13:37:13.911Z,74.57
2018-03-18T13:39:40.603Z,74.92
2018-03-18T13:42:07.231Z,74.70
2018-03-18T13:44:34.051Z,73.98
2018-03-18T13:47:00.696Z,74.61
2018-03-18T13:49:28.847Z,74.90
2018-03-18T13:51:56.459Z,74.25
2018-03-18T13:54:23.134Z,75.17
2018-03-18T13:56:50.524Z,74.82
2018-03-18T13:59:17.147Z,74.90
2018-03-18T14:01:44.529Z,74.57
2018-03-18T14:04:12.079Z,75.05
2018-03-18T14:06:38.696Z,75.28
2018-03-18T14:09:06.083Z,75.51
2018-03-18T14:11:32.814Z,75.47
2018-03-18T14:13:59.456Z,75.66
2018-03-18T14:16:26.117Z,74.53
2018-03-18T14:18:54.135Z,74.94
2018-03-18T14:21:21.384Z,74.37
2018-03-18T14:23:48.120Z,74.69
2018-03-18T14:26:15.541Z,74.94
2018-03-18T14:28:42.186Z,74.32
2018-03-18T14:31:08.828Z,74.49
2018-03-18T14:33:36.194Z,74.69
2018-03-18T14:36:03.032Z,75.09
2018-03-18T14:38:30.479Z,76.02
2018-03-18T14:40:57.198Z,76.06
2018-03-18T14:43:23.826Z,76.35
2018-03-18T14:45:50.754Z,75.42
2018-03-18T14:48:17.404Z,75.95
2018-03-18T14:50:44.001Z,76.63
2018-03-18T14:53:11.365Z,76.15
2018-03-18T14:55:38.707Z,76.63
2018-03-18T14:58:06.133Z,76.45
2018-03-18T15:00:33.670Z,76.10
2018-03-18T15:03:00.346Z,75.46
2018-03-18T15:05:27.026Z,74.87
2018-03-18T15:07:53.654Z,75.68
2018-03-18T15:10:21.013Z,75.72
2018-03-18T15:12:48.518Z,75.91
2018-03-18T15:15:15.531Z,75.39
2018-03-18T15:17:42.138Z,74.45
2018-03-18T15:20:08.735Z,75.81
2018-03-18T15:22:35.443Z,75.81
2018-03-18T15:25:02.100Z,75.75
2018-03-18T15:27:28.860Z,74.81
2018-03-18T15:29:55.507Z,74.97
2018-03-18T15:32:23.192Z,75.60
2018-03-18T15:34:50.562Z,75.42
2018-03-18T15:37:18.627Z,75.47
2018-03-18T15:39:45.991Z,76.26
2018-03-18T15:42:12.579Z,76.02
2018-03-18T15:44:39.302Z,76.57
2018-03-18T15:47:05.966Z,76.01
2018-03-18T15:49:32.603Z,76.66
2018-03-18T15:51:59.242Z,75.86
2018-03-18T15:54:25.900Z,76.25
2018-03-18T15:56:52.563Z,76.49
2018-03-18T15:59:20.147Z,76.79
2018-03-18T16:01:48.444Z,76.61
2018-03-18T16:04:15.116Z,76.67
2018-03-18T16:06:41.770Z,77.23
2018-03-18T16:09:08.731Z,77.08
2018-03-18T16:11:35.374Z,76.90
2018-03-18T16:14:02.050Z,76.27
2018-03-18T16:16:28.676Z,77.09
2018-03-18T16:18:56.047Z,76.97
2018-03-18T16:21:22.923Z,77.10
2018-03-18T16:23:49.563Z,77.16
2018-03-18T16:26:16.170Z,77.37
2018-03-18T16:28:42.764Z,77.42
2018-03-18T16:31:15.022Z,77.49
2018-03-18T16:33:41.681Z,77.40
2018-03-18T16:36:09.100Z,77.30
2018-03-18T16:38:35.772Z,76.04
2018-03-18T16:41:02.409Z,76.61
2018-03-18T16:43:29.131Z,77.31
2018-03-18T16:45:56.347Z,76.73
2018-03-18T16:48:23.688Z,76.40
2018-03-18T16:50:50.376Z,76.48
2018-03-18T16:53:16.999Z,76.48
2018-03-18T16:55:43.652Z,76.60
2018-03-18T16:58:10.976Z,76.82
2018-03-18T17:00:38.350Z,77.46
2018-03-18T17:03:05.010Z,77.27
2018-03-18T17:05:31.675Z,77.17
2018-03-18T17:07:59.078Z,76.95
2018-03-18T17:10:25.722Z,77.62
2018-03-18T17:12:52.373Z,78.11
2018-03-18T17:15:18.987Z,77.83
2018-03-18T17:17:46.324Z,78.15
2018-03-18T17:20:12.986Z,78.37
2018-03-18T17:22:39.627Z,78.19
2018-03-18T17:25:07.033Z,78.10
2018-03-18T17:27:33.726Z,78.55
2018-03-18T17:30:00.450Z,78.48
2018-03-18T17:32:27.043Z,78.39
2018-03-18T17:34:53.667Z,78.07
2018-03-18T17:37:20.259Z,78.00
2018-03-18T17:39:46.923Z,78.39
2018-03-18T17:42:13.568Z,78.56
2018-03-18T17:44:58.697Z,78.72
2018-03-18T17:47:43.654Z,78.75
2018-03-18T18:03:43.041Z,78.94
2018-03-18T18:06:10.353Z,78.12
2018-03-18T18:08:38.016Z,77.62
2018-03-18T18:11:04.665Z,77.71
2018-03-18T18:13:31.258Z,78.04
2018-03-18T18:15:57.903Z,78.33
2018-03-18T18:18:24.521Z,77.27
2018-03-18T18:20:51.189Z,76.99
2018-03-18T18:23:18.167Z,77.53
2018-03-18T18:25:45.575Z,77.93
2018-03-18T18:28:12.448Z,77.32
2018-03-18T18:30:39.072Z,77.58
2018-03-18T18:33:05.665Z,78.00
2018-03-18T18:35:33.642Z,78.03
2018-03-18T18:38:00.993Z,77.82
2018-03-18T18:40:27.622Z,77.75
2018-03-18T18:42:55.012Z,77.32
2018-03-18T18:45:21.659Z,76.74
2018-03-18T18:47:48.331Z,77.20
2018-03-18T18:50:15.016Z,77.34
2018-03-18T18:52:41.668Z,77.80
2018-03-18T18:55:08.235Z,77.81
2018-03-18T18:57:34.841Z,78.42
2018-03-18T19:00:01.482Z,78.68
2018-03-18T19:02:28.150Z,77.72
2018-03-18T19:04:55.544Z,77.45
2018-03-18T19:07:22.922Z,77.52
2018-03-18T19:09:51.897Z,77.60
2018-03-18T19:12:18.575Z,77.21
2018-03-18T19:14:45.196Z,77.18
2018-03-18T19:17:11.852Z,77.56
2018-03-18T19:19:38.512Z,77.93
2018-03-18T19:22:05.227Z,77.33
2018-03-18T19:24:31.916Z,77.51
2018-03-18T19:26:58.523Z,77.75
2018-03-18T19:29:25.144Z,77.92
2018-03-18T19:31:51.757Z,77.05
2018-03-18T19:34:18.372Z,76.78
2018-03-18T19:36:45.745Z,77.00
2018-03-18T19:39:12.375Z,77.08
2018-03-18T19:41:39.090Z,77.68
2018-03-18T19:44:06.443Z,76.69
2018-03-18T19:46:33.144Z,77.00
2018-03-18T19:49:00.733Z,76.11
2018-03-18T19:51:28.082Z,76.71
2018-03-18T19:53:54.774Z,77.42
2018-03-18T19:56:22.212Z,77.18
2018-03-18T19:58:48.834Z,76.14
2018-03-18T20:01:16.245Z,76.41
2018-03-18T20:03:42.797Z,76.55
2018-03-18T20:06:09.389Z,76.91
2018-03-18T20:08:36.371Z,76.66
2018-03-18T20:11:03.023Z,76.23
2018-03-18T20:13:30.570Z,76.45
2018-03-18T20:15:58.033Z,75.98
2018-03-18T20:18:24.614Z,76.73
2018-03-18T20:20:51.353Z,76.92
2018-03-18T20:23:17.964Z,77.17
2018-03-18T20:25:44.574Z,76.89
2018-03-18T20:28:11.194Z,76.31
2018-03-18T20:30:37.819Z,75.80
2018-03-18T20:33:04.430Z,76.38
2018-03-18T20:35:31.051Z,76.97
2018-03-18T20:37:58.427Z,76.32
2018-03-18T20:40:25.016Z,75.92
2018-03-18T20:42:51.651Z,75.75
2018-03-18T20:45:18.246Z,76.17
2018-03-18T20:47:44.912Z,76.49
2018-03-18T20:50:11.528Z,76.30
2018-03-18T20:52:38.130Z,76.16
2018-03-18T20:55:05.473Z,76.15
2018-03-18T20:57:32.524Z,76.36
2018-03-18T20:59:59.163Z,75.75
2018-03-18T21:02:26.540Z,76.49
2018-03-18T21:04:53.258Z,76.86
2018-03-18T21:07:20.893Z,77.07
2018-03-18T21:09:47.699Z,75.93
2018-03-18T21:12:14.290Z,75.92
2018-03-18T21:14:41.656Z,76.17
2018-03-18T21:17:08.998Z,76.04
2018-03-18T21:19:35.918Z,76.12
2018-03-18T21:22:03.277Z,75.73
2018-03-18T21:24:29.877Z,76.81
2018-03-18T21:26:56.510Z,76.63
2018-03-18T21:29:23.095Z,76.89
2018-03-18T21:31:49.671Z,77.30
2018-03-18T21:34:16.280Z,77.52
2018-03-18T21:36:42.890Z,77.65
2018-03-18T21:39:09.507Z,76.43
2018-03-18T21:41:37.399Z,76.60
2018-03-18T21:44:04.959Z,77.62
2018-03-18T21:46:32.675Z,77.28
2018-03-18T21:48:59.257Z,77.41
2018-03-18T21:51:25.887Z,77.78
2018-03-18T21:53:52.546Z,77.46
2018-03-18T21:56:19.186Z,78.12
2018-03-18T21:58:45.795Z,78.44
2018-03-18T22:01:12.408Z,77.60
2018-03-18T22:03:39.021Z,78.04
2018-03-18T22:06:06.606Z,78.09
2018-03-18T22:08:33.195Z,77.93
2018-03-18T22:10:59.784Z,77.73
2018-03-18T22:13:26.382Z,78.19
2018-03-18T22:15:53.003Z,78.24
2018-03-18T22:18:20.345Z,78.00
2018-03-18T22:20:46.946Z,78.59
2018-03-18T22:23:13.538Z,78.11
2018-03-18T22:25:41.754Z,78.62
2018-03-18T22:28:08.629Z,78.60
2018-03-18T22:30:35.280Z,79.07
2018-03-18T22:33:01.903Z,79.68
2018-03-18T22:35:28.602Z,79.89
2018-03-18T22:37:55.194Z,79.98
2018-03-18T22:40:22.891Z,80.15
2018-03-18T22:42:49.495Z,79.98
2018-03-18T22:45:16.809Z,80.03
2018-03-18T22:47:44.146Z,79.79
2018-03-18T22:50:10.774Z,78.97
2018-03-18T22:52:38.092Z,78.62
2018-03-18T22:55:04.675Z,78.63
2018-03-18T22:57:31.251Z,78.64
2018-03-18T22:59:57.861Z,78.75
2018-03-18T23:02:24.459Z,79.02
2018-03-18T23:04:51.067Z,78.68
2018-03-18T23:07:17.652Z,78.16
2018-03-18T23:09:44.263Z,78.87
2018-03-18T23:12:11.603Z,78.31
2018-03-18T23:14:38.201Z,78.83
2018-03-18T23:17:04.790Z,78.82
2018-03-18T23:19:32.128Z,78.61
2018-03-18T23:21:59.438Z,79.10
2018-03-18T23:24:26.013Z,79.11
2018-03-18T23:26:52.582Z,78.83
2018-03-18T23:29:19.889Z,78.89
2018-03-18T23:31:46.484Z,78.02
2018-03-18T23:34:13.044Z,78.34
2018-03-18T23:36:39.622Z,76.71
2018-03-18T23:39:06.219Z,77.32
2018-03-18T23:41:32.828Z,77.44
2018-03-18T23:43:59.446Z,77.17
2018-03-18T23:46:26.779Z,77.31
2018-03-18T23:48:53.339Z,77.33
2018-03-18T23:51:20.677Z,77.55
2018-03-18T23:53:47.338Z,77.31
2018-03-18T23:56:13.951Z,77.28
2018-03-18T23:58:40.503Z,77.44
